Time;durP1;ratioP1;P1;durP2;ratioP2;P2;SDS_P1;SDS_P2;PMS_P1;PMS_P2;Temp;Humidity;BMP_temperature;BMP_pressure;BME280_temperature;BME280_humidity;BME280_pressure;Samples;Min_cycle;Max_cycle;Signal;HPM_P1;HPM_P2
2022/10/15 10:16:09;;;;;;;;;8.80;7.80;;;;;;;;5136364;27;13530;-70
2022/10/15 10:18:36;;;;;;;;;5.60;5.60;;;;;;;;5106060;27;8831;-71
2022/10/15 10:21:03;;;;;;;;;8.00;6.00;;;;;;;;5105622;28;9658;-71
2022/10/15 10:23:35;;;;;;;;;8.00;7.40;;;;;;;;5107317;28;8820;-71
2022/10/15 10:26:02;;;;;;;;;7.80;7.80;;;;;;;;5107263;28;9557;-70
2022/10/15 10:28:30;;;;;;;;;7.40;7.40;;;;;;;;5105227;28;8869;-78
2022/10/15 10:30:56;;;;;;;;;8.60;8.40;;;;;;;;5101854;28;8975;-73
2022/10/15 10:33:47;;;;;;;;;7.75;7.75;;;;;;;;5102840;28;8942;-74
2022/10/15 10:36:30;;;;;;;;;8.80;8.60;;;;;;;;5090709;28;8888;-74
2022/10/15 10:39:13;;;;;;;;;8.20;8.00;;;;;;;;5086397;28;8822;-75
2022/10/15 10:41:59;;;;;;;;;9.20;9.00;;;;;;;;5087360;27;8798;-74
2022/10/15 10:47:05;;;;;;;;;11.60;10.00;;;;;;;;5085402;28;9755;-79
2022/10/15 10:49:31;;;;;;;;;13.20;10.00;;;;;;;;5076990;28;8802;-79
2022/10/15 10:51:57;;;;;;;;;10.40;10.40;;;;;;;;5076051;28;8804;-75
2022/10/15 10:54:22;;;;;;;;;11.00;9.50;;;;;;;;5076478;28;8858;-75
2022/10/15 10:56:48;;;;;;;;;12.50;10.50;;;;;;;;5074426;28;8838;-73
2022/10/15 10:59:22;;;;;;;;;13.50;10.75;;;;;;;;5076769;28;8831;-72
2022/10/15 11:01:48;;;;;;;;;11.00;10.40;;;;;;;;5073750;28;8796;-74
2022/10/15 11:04:23;;;;;;;;;10.50;10.50;;;;;;;;5073319;28;8930;-72
2022/10/15 11:06:51;;;;;;;;;9.40;8.40;;;;;;;;5076582;28;8900;-73
2022/10/15 11:09:24;;;;;;;;;11.80;10.20;;;;;;;;5075313;28;8841;-76
2022/10/15 11:12:04;;;;;;;;;11.00;9.25;;;;;;;;5075529;28;8825;-76
2022/10/15 11:14:48;;;;;;;;;10.50;10.00;;;;;;;;5083376;28;9690;-75
2022/10/15 11:17:14;;;;;;;;;13.50;11.00;;;;;;;;5086384;28;8901;-76
2022/10/15 11:20:02;;;;;;;;;11.67;9.00;;;;;;;;5085217;28;9008;-76
2022/10/15 11:22:46;;;;;;;;;11.00;10.50;;;;;;;;5068112;28;8807;-77
2022/10/15 11:25:30;;;;;;;;;11.25;11.25;;;;;;;;5085887;28;8831;-75
2022/10/15 11:28:04;;;;;;;;;14.75;12.75;;;;;;;;5072495;28;8838;-77
2022/10/15 11:30:49;;;;;;;;;14.00;12.00;;;;;;;;5072176;28;8803;-76
2022/10/15 11:33:26;;;;;;;;;13.25;11.25;;;;;;;;5061407;28;9001;-81
2022/10/15 11:36:04;;;;;;;;;14.25;12.25;;;;;;;;5066263;28;9588;-78
2022/10/15 11:38:42;;;;;;;;;12.00;12.00;;;;;;;;5072733;28;8796;-79
2022/10/15 11:41:24;;;;;;;;;13.25;11.50;;;;;;;;5069502;28;8812;-75
2022/10/15 11:44:02;;;;;;;;;12.25;11.75;;;;;;;;5034578;28;8935;-75
2022/10/15 11:46:27;;;;;;;;;11.50;10.00;;;;;;;;5057496;28;8824;-76
2022/10/15 11:49:03;;;;;;;;;11.00;10.25;;;;;;;;5060860;28;8909;-78
2022/10/15 11:51:33;;;;;;;;;13.50;11.75;;;;;;;;5049900;28;9584;-76
2022/10/15 11:54:04;;;;;;;;;12.75;11.25;;;;;;;;5056216;28;8854;-73
2022/10/15 11:56:38;;;;;;;;;12.00;10.00;;;;;;;;5054314;28;8932;-73
2022/10/15 11:59:13;;;;;;;;;11.00;10.25;;;;;;;;5072447;28;8838;-71
2022/10/15 12:01:42;;;;;;;;;12.25;11.50;;;;;;;;5072067;28;8805;-75
2022/10/15 12:04:26;;;;;;;;;11.00;11.00;;;;;;;;5072350;28;8808;-75
2022/10/15 12:06:53;;;;;;;;;12.75;11.25;;;;;;;;5072246;28;8831;-74
2022/10/15 12:09:27;;;;;;;;;9.50;8.50;;;;;;;;5052114;28;8850;-74
2022/10/15 12:12:12;;;;;;;;;12.75;11.00;;;;;;;;5054790;28;8827;-75
2022/10/15 12:14:38;;;;;;;;;15.00;12.00;;;;;;;;5023163;28;8846;-71
2022/10/15 12:17:03;;;;;;;;;12.67;12.67;;;;;;;;5052138;28;8816;-72
2022/10/15 12:19:35;;;;;;;;;11.00;10.33;;;;;;;;5051522;28;8833;-70
2022/10/15 12:22:05;;;;;;;;;10.25;10.25;;;;;;;;5052054;28;8810;-72
2022/10/15 12:24:36;;;;;;;;;13.50;10.75;;;;;;;;5051908;28;8817;-72
2022/10/15 12:27:20;;;;;;;;;11.25;10.25;;;;;;;;5051873;28;8814;-72
2022/10/15 12:30:10;;;;;;;;;12.33;10.33;;;;;;;;5051758;28;8839;-73
2022/10/15 12:32:46;;;;;;;;;16.25;16.00;;;;;;;;5051737;28;8898;-74
2022/10/15 12:35:14;;;;;;;;;21.33;17.33;;;;;;;;5051711;28;8846;-73
2022/10/15 12:37:40;;;;;;;;;27.75;24.00;;;;;;;;5032612;28;9287;-76
2022/10/15 12:40:22;;;;;;;;;16.67;14.00;;;;;;;;5061881;28;9516;-73
2022/10/15 12:42:56;;;;;;;;;21.00;17.67;;;;;;;;5067332;28;9069;-73
2022/10/15 12:45:44;;;;;;;;;14.00;13.00;;;;;;;;5061881;28;9345;-72
2022/10/15 12:48:30;;;;;;;;;13.33;13.00;;;;;;;;5062062;28;8919;-72
2022/10/15 12:51:14;;;;;;;;;11.33;11.33;;;;;;;;5070156;28;9272;-73
2022/10/15 12:53:43;;;;;;;;;15.00;15.00;;;;;;;;5053509;28;9126;-73
2022/10/15 12:56:09;;;;;;;;;16.00;13.33;;;;;;;;5070843;28;9209;-73
2022/10/15 12:58:38;;;;;;;;;13.00;12.67;;;;;;;;5068725;28;9000;-73
2022/10/15 13:01:13;;;;;;;;;10.00;10.00;;;;;;;;5050120;28;8862;-73
2022/10/15 13:03:47;;;;;;;;;9.00;8.00;;;;;;;;5064030;28;8903;-73
2022/10/15 13:06:12;;;;;;;;;10.00;9.67;;;;;;;;5071283;28;8784;-75
2022/10/15 13:08:41;;;;;;;;;12.00;8.67;;;;;;;;5063194;28;9128;-72
2022/10/15 13:11:16;;;;;;;;;12.33;10.00;;;;;;;;5060706;28;8784;-73
2022/10/15 13:13:42;;;;;;;;;13.00;13.00;;;;;;;;5061544;28;9157;-73
2022/10/15 13:16:08;;;;;;;;;8.33;8.33;;;;;;;;5061715;28;9401;-73
2022/10/15 13:18:33;;;;;;;;;15.50;14.25;;;;;;;;5059906;28;8850;-73
2022/10/15 13:21:02;;;;;;;;;13.67;11.33;;;;;;;;5061131;28;8831;-73
2022/10/15 13:23:29;;;;;;;;;9.33;9.00;;;;;;;;5061688;28;8835;-73
2022/10/15 13:26:16;;;;;;;;;13.00;13.00;;;;;;;;5041676;28;10029;-73
2022/10/15 13:28:42;;;;;;;;;12.00;10.67;;;;;;;;5061567;28;9511;-73
2022/10/15 13:31:13;;;;;;;;;12.67;8.33;;;;;;;;5067347;28;9897;-73
2022/10/15 13:33:40;;;;;;;;;10.75;10.00;;;;;;;;5067222;28;8836;-72
2022/10/15 13:36:06;;;;;;;;;11.75;11.75;;;;;;;;5058864;28;9375;-73
2022/10/15 13:38:32;;;;;;;;;13.75;13.00;;;;;;;;5060082;28;9389;-73
2022/10/15 13:40:58;;;;;;;;;10.67;9.67;;;;;;;;5059613;28;9485;-72
2022/10/15 13:43:24;;;;;;;;;12.00;12.00;;;;;;;;5062503;28;9577;-72
2022/10/15 13:45:53;;;;;;;;;13.50;10.25;;;;;;;;5059656;28;8957;-73
2022/10/15 13:48:20;;;;;;;;;12.50;11.25;;;;;;;;5061994;28;9431;-73
2022/10/15 13:50:47;;;;;;;;;12.50;12.50;;;;;;;;5060560;28;9365;-73
2022/10/15 13:53:33;;;;;;;;;12.00;12.00;;;;;;;;5059860;28;9483;-73
2022/10/15 13:56:02;;;;;;;;;15.00;12.00;;;;;;;;5057494;28;9518;-72
2022/10/15 13:58:29;;;;;;;;;13.67;12.00;;;;;;;;5050577;28;9300;-73
2022/10/15 14:00:58;;;;;;;;;12.00;12.00;;;;;;;;5032627;28;9408;-72
2022/10/15 14:03:24;;;;;;;;;14.25;13.75;;;;;;;;5050925;28;9330;-71
2022/10/15 14:05:51;;;;;;;;;18.00;14.25;;;;;;;;5060200;28;9490;-70
2022/10/15 14:08:18;;;;;;;;;15.25;15.25;;;;;;;;5057993;28;9697;-70
2022/10/15 14:10:43;;;;;;;;;16.25;14.00;;;;;;;;5061470;28;9572;-71
2022/10/15 14:13:12;;;;;;;;;18.50;14.25;;;;;;;;5061585;28;9464;-71
2022/10/15 14:15:43;;;;;;;;;12.33;10.00;;;;;;;;5059008;28;9608;-71
2022/10/15 14:18:10;;;;;;;;;14.00;11.25;;;;;;;;5061020;28;9356;-71
2022/10/15 14:20:35;;;;;;;;;14.25;12.00;;;;;;;;5042416;28;9351;-73
2022/10/15 14:23:01;;;;;;;;;13.33;10.33;;;;;;;;5058480;28;9649;-74
2022/10/15 14:25:26;;;;;;;;;13.67;10.00;;;;;;;;5060080;28;8816;-76
2022/10/15 14:27:51;;;;;;;;;11.00;8.00;;;;;;;;5059129;28;8822;-75
2022/10/15 14:30:35;;;;;;;;;11.75;10.00;;;;;;;;5058931;28;9419;-72
2022/10/15 14:33:01;;;;;;;;;14.25;12.00;;;;;;;;5061213;28;8904;-80
2022/10/15 14:35:31;;;;;;;;;11.75;10.75;;;;;;;;5070095;28;9778;-75
2022/10/15 14:38:00;;;;;;;;;12.00;10.00;;;;;;;;5070309;28;9981;-74
2022/10/15 14:40:25;;;;;;;;;12.50;12.00;;;;;;;;5070023;28;9402;-72
2022/10/15 14:42:53;;;;;;;;;13.00;12.75;;;;;;;;5070080;28;9719;-73
2022/10/15 14:45:22;;;;;;;;;12.75;12.00;;;;;;;;5051541;28;8851;-73
2022/10/15 14:47:49;;;;;;;;;10.75;10.75;;;;;;;;5070422;28;9702;-73
2022/10/15 14:50:16;;;;;;;;;10.00;9.50;;;;;;;;5070228;28;9496;-72
2022/10/15 14:52:45;;;;;;;;;15.75;12.00;;;;;;;;5070146;28;9645;-72
2022/10/15 14:55:18;;;;;;;;;13.75;11.75;;;;;;;;5069798;28;9658;-72
2022/10/15 14:57:44;;;;;;;;;14.00;13.75;;;;;;;;5070062;28;9641;-73
2022/10/15 15:00:14;;;;;;;;;13.75;11.00;;;;;;;;5070063;28;9879;-73
2022/10/15 15:02:39;;;;;;;;;15.25;14.00;;;;;;;;5065283;28;9500;-73
2022/10/15 15:05:06;;;;;;;;;13.25;13.25;;;;;;;;5044494;28;9670;-73
2022/10/15 15:07:32;;;;;;;;;12.25;11.00;;;;;;;;5063336;28;8819;-73
2022/10/15 15:09:57;;;;;;;;;13.25;13.00;;;;;;;;5043321;28;10345;-72
2022/10/15 15:12:24;;;;;;;;;11.00;10.00;;;;;;;;5063704;28;8921;-73
2022/10/15 15:14:49;;;;;;;;;32.00;31.00;;;;;;;;5062006;28;8840;-72
2022/10/15 15:17:16;;;;;;;;;32.50;30.75;;;;;;;;5063169;28;10713;-71
2022/10/15 15:19:41;;;;;;;;;17.25;15.25;;;;;;;;5061205;28;8798;-71
2022/10/15 15:22:09;;;;;;;;;9.75;8.25;;;;;;;;5043889;28;9846;-72
2022/10/15 15:24:35;;;;;;;;;15.50;11.50;;;;;;;;5062809;28;8815;-72
2022/10/15 15:27:00;;;;;;;;;10.75;10.50;;;;;;;;5060862;28;10486;-72
2022/10/15 15:29:25;;;;;;;;;17.75;14.00;;;;;;;;5061985;28;8796;-72
2022/10/15 15:31:51;;;;;;;;;15.00;13.25;;;;;;;;5062133;28;8807;-72
2022/10/15 15:34:16;;;;;;;;;15.00;14.50;;;;;;;;5053709;28;8845;-72
2022/10/15 15:36:41;;;;;;;;;53.00;42.00;;;;;;;;5052719;28;8961;-72
2022/10/15 15:39:06;;;;;;;;;29.50;24.25;;;;;;;;5072875;28;8798;-72
2022/10/15 15:41:32;;;;;;;;;23.25;21.75;;;;;;;;5067666;28;8927;-72
2022/10/15 15:43:58;;;;;;;;;18.25;14.75;;;;;;;;5042655;28;8830;-72
2022/10/15 15:46:23;;;;;;;;;14.25;12.00;;;;;;;;5052693;28;9537;-72
2022/10/15 15:48:48;;;;;;;;;18.50;17.00;;;;;;;;5034915;28;8814;-72
2022/10/15 15:51:31;;;;;;;;;34.00;30.50;;;;;;;;5052966;28;8794;-72
2022/10/15 15:53:57;;;;;;;;;20.25;19.25;;;;;;;;5052688;28;8806;-73
2022/10/15 15:56:22;;;;;;;;;18.50;16.50;;;;;;;;5034578;28;10238;-73
2022/10/15 15:58:49;;;;;;;;;19.00;17.25;;;;;;;;5052554;28;10331;-75
2022/10/15 16:01:14;;;;;;;;;15.00;13.25;;;;;;;;5050862;28;8806;-73
2022/10/15 16:03:40;;;;;;;;;18.00;15.75;;;;;;;;5051455;28;9891;-73
2022/10/15 16:06:06;;;;;;;;;17.00;16.00;;;;;;;;5051851;28;8869;-75
2022/10/15 16:08:31;;;;;;;;;21.25;18.75;;;;;;;;5050196;28;8857;-76
2022/10/15 16:10:59;;;;;;;;;13.00;12.00;;;;;;;;5057473;28;11582;-74
2022/10/15 16:13:25;;;;;;;;;19.00;18.00;;;;;;;;5061131;28;8807;-72
2022/10/15 16:15:50;;;;;;;;;19.75;17.75;;;;;;;;5043123;28;10099;-71
2022/10/15 16:18:15;;;;;;;;;18.00;18.00;;;;;;;;5058985;28;8804;-71
2022/10/15 16:20:41;;;;;;;;;13.25;12.50;;;;;;;;5061597;28;8791;-74
2022/10/15 16:23:06;;;;;;;;;11.00;10.00;;;;;;;;5041948;28;9718;-73
2022/10/15 16:25:31;;;;;;;;;10.00;9.25;;;;;;;;5059659;28;9977;-73
2022/10/15 16:28:00;;;;;;;;;14.25;10.75;;;;;;;;5057954;28;8831;-72
2022/10/15 16:30:25;;;;;;;;;12.00;11.50;;;;;;;;5060062;28;8800;-73
2022/10/15 16:32:51;;;;;;;;;11.00;11.00;;;;;;;;5066699;28;9885;-72
2022/10/15 16:35:16;;;;;;;;;10.25;10.00;;;;;;;;5045676;28;8840;-75
2022/10/15 16:37:41;;;;;;;;;11.00;10.50;;;;;;;;5042660;28;8835;-79
2022/10/15 16:40:07;;;;;;;;;9.50;9.00;;;;;;;;5056613;28;8814;-74
2022/10/15 16:42:32;;;;;;;;;12.00;12.00;;;;;;;;5061801;28;8851;-76
2022/10/15 16:44:57;;;;;;;;;11.00;11.00;;;;;;;;5060784;28;9534;-76
2022/10/15 16:47:23;;;;;;;;;15.00;12.50;;;;;;;;5040809;28;9569;-74
2022/10/15 16:49:48;;;;;;;;;13.50;10.00;;;;;;;;5058614;28;8910;-75
2022/10/15 16:52:13;;;;;;;;;12.75;12.75;;;;;;;;5044358;28;8822;-75
2022/10/15 16:54:38;;;;;;;;;4.00;4.00;;;;;;;;5058794;28;8864;-76
2022/10/15 16:57:04;;;;;;;;;11.00;10.00;;;;;;;;5060540;28;8799;-77
2022/10/15 16:59:30;;;;;;;;;13.00;10.00;;;;;;;;5057652;28;8825;-79
2022/10/15 17:01:55;;;;;;;;;15.50;14.75;;;;;;;;5060931;28;8814;-76
2022/10/15 17:04:20;;;;;;;;;15.75;10.50;;;;;;;;5058251;28;8810;-75
2022/10/15 17:06:46;;;;;;;;;16.00;16.00;;;;;;;;5059887;28;8830;-76
2022/10/15 17:09:11;;;;;;;;;21.75;16.00;;;;;;;;5056377;28;8786;-74
2022/10/15 17:11:38;;;;;;;;;12.75;12.00;;;;;;;;5059769;28;8802;-77
2022/10/15 17:14:04;;;;;;;;;17.50;16.00;;;;;;;;5042948;28;8810;-75
2022/10/15 17:16:35;;;;;;;;;18.75;18.00;;;;;;;;5041709;28;10282;-75
2022/10/15 17:19:01;;;;;;;;;20.75;19.50;;;;;;;;5060643;28;10452;-74
2022/10/15 17:21:27;;;;;;;;;16.50;16.50;;;;;;;;5057895;28;10372;-77
2022/10/15 17:23:53;;;;;;;;;18.50;16.75;;;;;;;;5058465;28;8808;-79
2022/10/15 17:26:20;;;;;;;;;18.75;18.50;;;;;;;;5056093;28;11600;-79
2022/10/15 17:28:46;;;;;;;;;21.25;20.00;;;;;;;;5057714;28;10325;-79
2022/10/15 17:31:13;;;;;;;;;25.25;22.00;;;;;;;;5038350;28;10615;-75
2022/10/15 17:33:39;;;;;;;;;19.25;18.50;;;;;;;;5060070;28;10640;-78
2022/10/15 17:36:15;;;;;;;;;21.50;18.00;;;;;;;;5059960;28;10598;-75
2022/10/15 17:38:41;;;;;;;;;18.00;17.25;;;;;;;;5055061;28;10310;-76
